sensor_id;sensor_type;location;lat;lon;timestamp;P1;durP1;ratioP1;P2;durP2;ratioP2
9100;SDS011;4586;52.518;13.486;2023-02-03T00:03:28;6.53;;;2.87;;
9100;SDS011;4586;52.518;13.486;2023-02-03T00:07:30;7.40;;;2.70;;
9100;SDS011;4586;52.518;13.486;2023-02-03T00:11:32;3.80;;;2.50;;
9100;SDS011;4586;52.518;13.486;2023-02-03T00:15:35;3.43;;;2.07;;
9100;SDS011;4586;52.518;13.486;2023-02-03T00:19:37;3.53;;;1.90;;
9100;SDS011;4586;52.518;13.486;2023-02-03T00:23:42;6.63;;;2.17;;
9100;SDS011;4586;52.518;13.486;2023-02-03T00:27:44;4.47;;;2.30;;
9100;SDS011;4586;52.518;13.486;2023-02-03T00:31:46;5.10;;;2.20;;
9100;SDS011;4586;52.518;13.486;2023-02-03T00:35:49;8.77;;;1.93;;
9100;SDS011;4586;52.518;13.486;2023-02-03T00:39:51;2.77;;;1.90;;
9100;SDS011;4586;52.518;13.486;2023-02-03T00:43:53;5.13;;;1.97;;
9100;SDS011;4586;52.518;13.486;2023-02-03T00:47:55;7.13;;;1.60;;
9100;SDS011;4586;52.518;13.486;2023-02-03T00:51:58;3.70;;;1.83;;
9100;SDS011;4586;52.518;13.486;2023-02-03T00:56:00;3.60;;;1.80;;
9100;SDS011;4586;52.518;13.486;2023-02-03T01:00:02;1.90;;;1.60;;
9100;SDS011;4586;52.518;13.486;2023-02-03T01:04:05;4.60;;;2.03;;
9100;SDS011;4586;52.518;13.486;2023-02-03T01:08:07;6.07;;;1.80;;
9100;SDS011;4586;52.518;13.486;2023-02-03T01:12:09;6.37;;;2.87;;
9100;SDS011;4586;52.518;13.486;2023-02-03T01:16:16;3.03;;;1.90;;
9100;SDS011;4586;52.518;13.486;2023-02-03T01:20:19;6.43;;;2.43;;
9100;SDS011;4586;52.518;13.486;2023-02-03T01:24:21;3.03;;;1.70;;
9100;SDS011;4586;52.518;13.486;2023-02-03T01:28:23;3.13;;;2.03;;
9100;SDS011;4586;52.518;13.486;2023-02-03T01:32:26;2.33;;;1.53;;
9100;SDS011;4586;52.518;13.486;2023-02-03T01:36:30;2.07;;;0.97;;
9100;SDS011;4586;52.518;13.486;2023-02-03T01:40:32;2.00;;;1.50;;
9100;SDS011;4586;52.518;13.486;2023-02-03T01:48:37;3.23;;;2.17;;
9100;SDS011;4586;52.518;13.486;2023-02-03T01:52:43;3.97;;;2.10;;
9100;SDS011;4586;52.518;13.486;2023-02-03T01:56:47;3.27;;;2.30;;
9100;SDS011;4586;52.518;13.486;2023-02-03T02:00:52;3.73;;;2.10;;
9100;SDS011;4586;52.518;13.486;2023-02-03T02:04:58;5.23;;;2.13;;
9100;SDS011;4586;52.518;13.486;2023-02-03T02:09:02;5.87;;;2.03;;
9100;SDS011;4586;52.518;13.486;2023-02-03T02:13:05;3.23;;;2.00;;
9100;SDS011;4586;52.518;13.486;2023-02-03T02:33:34;2.30;;;1.80;;
9100;SDS011;4586;52.518;13.486;2023-02-03T02:41:44;2.10;;;1.87;;
9100;SDS011;4586;52.518;13.486;2023-02-03T02:53:54;3.47;;;1.50;;
9100;SDS011;4586;52.518;13.486;2023-02-03T02:57:59;3.67;;;1.13;;
9100;SDS011;4586;52.518;13.486;2023-02-03T03:02:02;2.13;;;1.40;;
9100;SDS011;4586;52.518;13.486;2023-02-03T03:06:25;1.37;;;1.27;;
9100;SDS011;4586;52.518;13.486;2023-02-03T03:10:30;1.67;;;1.10;;
9100;SDS011;4586;52.518;13.486;2023-02-03T03:14:33;2.30;;;0.90;;
9100;SDS011;4586;52.518;13.486;2023-02-03T03:18:44;2.47;;;1.10;;
9100;SDS011;4586;52.518;13.486;2023-02-03T03:22:51;1.27;;;1.17;;
9100;SDS011;4586;52.518;13.486;2023-02-03T03:31:05;1.00;;;0.90;;
9100;SDS011;4586;52.518;13.486;2023-02-03T03:35:08;1.33;;;1.10;;
9100;SDS011;4586;52.518;13.486;2023-02-03T03:43:27;0.63;;;0.63;;
9100;SDS011;4586;52.518;13.486;2023-02-03T03:52:00;0.77;;;0.77;;
9100;SDS011;4586;52.518;13.486;2023-02-03T03:56:04;0.60;;;0.50;;
9100;SDS011;4586;52.518;13.486;2023-02-03T04:00:08;0.60;;;0.60;;
9100;SDS011;4586;52.518;13.486;2023-02-03T04:04:13;0.57;;;0.57;;
9100;SDS011;4586;52.518;13.486;2023-02-03T04:08:16;1.07;;;0.77;;
9100;SDS011;4586;52.518;13.486;2023-02-03T04:12:21;0.77;;;0.60;;
9100;SDS011;4586;52.518;13.486;2023-02-03T04:16:23;0.70;;;0.70;;
9100;SDS011;4586;52.518;13.486;2023-02-03T04:20:26;0.60;;;0.60;;
9100;SDS011;4586;52.518;13.486;2023-02-03T04:24:29;0.80;;;0.80;;
9100;SDS011;4586;52.518;13.486;2023-02-03T04:28:31;0.87;;;0.80;;
9100;SDS011;4586;52.518;13.486;2023-02-03T04:32:34;1.03;;;0.93;;
9100;SDS011;4586;52.518;13.486;2023-02-03T04:36:36;0.63;;;0.63;;
9100;SDS011;4586;52.518;13.486;2023-02-03T04:40:38;2.37;;;1.10;;
9100;SDS011;4586;52.518;13.486;2023-02-03T04:44:40;1.20;;;1.10;;
9100;SDS011;4586;52.518;13.486;2023-02-03T04:48:42;2.40;;;1.53;;
9100;SDS011;4586;52.518;13.486;2023-02-03T04:52:44;1.23;;;1.07;;
9100;SDS011;4586;52.518;13.486;2023-02-03T04:56:47;2.10;;;1.40;;
9100;SDS011;4586;52.518;13.486;2023-02-03T05:00:49;3.70;;;1.70;;
9100;SDS011;4586;52.518;13.486;2023-02-03T05:04:51;1.87;;;1.67;;
9100;SDS011;4586;52.518;13.486;2023-02-03T05:08:53;2.43;;;1.90;;
9100;SDS011;4586;52.518;13.486;2023-02-03T05:12:55;1.87;;;1.67;;
9100;SDS011;4586;52.518;13.486;2023-02-03T05:16:58;2.30;;;1.33;;
9100;SDS011;4586;52.518;13.486;2023-02-03T05:21:00;2.07;;;1.73;;
9100;SDS011;4586;52.518;13.486;2023-02-03T05:25:03;2.87;;;1.90;;
9100;SDS011;4586;52.518;13.486;2023-02-03T05:29:05;2.53;;;2.23;;
9100;SDS011;4586;52.518;13.486;2023-02-03T05:33:07;1.37;;;1.23;;
9100;SDS011;4586;52.518;13.486;2023-02-03T05:37:10;3.20;;;2.53;;
9100;SDS011;4586;52.518;13.486;2023-02-03T05:41:12;4.70;;;3.30;;
9100;SDS011;4586;52.518;13.486;2023-02-03T05:45:14;4.60;;;3.20;;
9100;SDS011;4586;52.518;13.486;2023-02-03T05:49:17;4.37;;;3.17;;
9100;SDS011;4586;52.518;13.486;2023-02-03T05:53:19;5.10;;;3.97;;
9100;SDS011;4586;52.518;13.486;2023-02-03T05:57:21;5.83;;;3.03;;
9100;SDS011;4586;52.518;13.486;2023-02-03T06:01:23;3.87;;;2.97;;
9100;SDS011;4586;52.518;13.486;2023-02-03T06:05:25;4.33;;;3.10;;
9100;SDS011;4586;52.518;13.486;2023-02-03T06:09:27;5.23;;;3.90;;
9100;SDS011;4586;52.518;13.486;2023-02-03T06:13:30;5.23;;;3.67;;
9100;SDS011;4586;52.518;13.486;2023-02-03T06:17:32;4.93;;;3.67;;
9100;SDS011;4586;52.518;13.486;2023-02-03T06:21:34;2.87;;;1.60;;
9100;SDS011;4586;52.518;13.486;2023-02-03T06:25:36;10.67;;;5.10;;
9100;SDS011;4586;52.518;13.486;2023-02-03T06:29:38;3.97;;;3.57;;
9100;SDS011;4586;52.518;13.486;2023-02-03T06:33:41;3.20;;;2.63;;
9100;SDS011;4586;52.518;13.486;2023-02-03T06:37:43;1.83;;;1.67;;
9100;SDS011;4586;52.518;13.486;2023-02-03T06:41:45;3.43;;;2.07;;
9100;SDS011;4586;52.518;13.486;2023-02-03T06:45:47;5.03;;;4.53;;
9100;SDS011;4586;52.518;13.486;2023-02-03T06:49:49;7.77;;;4.77;;
9100;SDS011;4586;52.518;13.486;2023-02-03T06:53:51;6.63;;;3.23;;
9100;SDS011;4586;52.518;13.486;2023-02-03T06:57:54;5.53;;;3.30;;
9100;SDS011;4586;52.518;13.486;2023-02-03T07:01:56;7.10;;;3.63;;
9100;SDS011;4586;52.518;13.486;2023-02-03T07:05:58;5.20;;;2.93;;
9100;SDS011;4586;52.518;13.486;2023-02-03T07:10:01;4.10;;;3.17;;
9100;SDS011;4586;52.518;13.486;2023-02-03T07:14:03;3.03;;;1.73;;
9100;SDS011;4586;52.518;13.486;2023-02-03T07:18:05;3.80;;;2.73;;
9100;SDS011;4586;52.518;13.486;2023-02-03T07:22:09;3.37;;;2.60;;
9100;SDS011;4586;52.518;13.486;2023-02-03T07:26:11;3.20;;;2.67;;
9100;SDS011;4586;52.518;13.486;2023-02-03T07:30:13;4.10;;;2.63;;
9100;SDS011;4586;52.518;13.486;2023-02-03T07:34:15;3.17;;;2.57;;
9100;SDS011;4586;52.518;13.486;2023-02-03T07:38:18;2.30;;;1.63;;
9100;SDS011;4586;52.518;13.486;2023-02-03T07:42:20;4.23;;;2.90;;
9100;SDS011;4586;52.518;13.486;2023-02-03T07:46:25;4.30;;;1.83;;
9100;SDS011;4586;52.518;13.486;2023-02-03T07:50:27;3.17;;;1.97;;
9100;SDS011;4586;52.518;13.486;2023-02-03T07:54:29;4.60;;;2.80;;
9100;SDS011;4586;52.518;13.486;2023-02-03T07:58:32;2.57;;;1.70;;
9100;SDS011;4586;52.518;13.486;2023-02-03T08:02:34;3.57;;;1.93;;
9100;SDS011;4586;52.518;13.486;2023-02-03T08:06:36;1.93;;;1.47;;
9100;SDS011;4586;52.518;13.486;2023-02-03T08:10:38;2.97;;;2.43;;
9100;SDS011;4586;52.518;13.486;2023-02-03T08:14:40;2.00;;;1.47;;
9100;SDS011;4586;52.518;13.486;2023-02-03T08:18:43;2.30;;;1.23;;
9100;SDS011;4586;52.518;13.486;2023-02-03T08:22:45;1.33;;;1.23;;
9100;SDS011;4586;52.518;13.486;2023-02-03T08:26:47;2.43;;;1.90;;
9100;SDS011;4586;52.518;13.486;2023-02-03T08:30:49;1.30;;;1.20;;
9100;SDS011;4586;52.518;13.486;2023-02-03T08:34:52;1.63;;;1.07;;
9100;SDS011;4586;52.518;13.486;2023-02-03T08:38:54;2.40;;;1.63;;
9100;SDS011;4586;52.518;13.486;2023-02-03T08:42:56;1.80;;;1.50;;
9100;SDS011;4586;52.518;13.486;2023-02-03T08:46:59;1.77;;;1.40;;
9100;SDS011;4586;52.518;13.486;2023-02-03T08:51:01;0.97;;;0.97;;
9100;SDS011;4586;52.518;13.486;2023-02-03T08:55:04;1.57;;;1.20;;
9100;SDS011;4586;52.518;13.486;2023-02-03T08:59:06;2.03;;;1.20;;
9100;SDS011;4586;52.518;13.486;2023-02-03T09:03:08;1.77;;;1.67;;
9100;SDS011;4586;52.518;13.486;2023-02-03T09:07:10;2.07;;;1.30;;
9100;SDS011;4586;52.518;13.486;2023-02-03T09:11:14;0.80;;;0.80;;
9100;SDS011;4586;52.518;13.486;2023-02-03T09:15:16;1.03;;;0.67;;
9100;SDS011;4586;52.518;13.486;2023-02-03T09:19:19;0.73;;;0.73;;
9100;SDS011;4586;52.518;13.486;2023-02-03T09:23:21;1.10;;;0.87;;
9100;SDS011;4586;52.518;13.486;2023-02-03T09:27:23;1.50;;;1.40;;
9100;SDS011;4586;52.518;13.486;2023-02-03T09:31:25;3.63;;;0.97;;
9100;SDS011;4586;52.518;13.486;2023-02-03T09:35:27;1.27;;;0.83;;
9100;SDS011;4586;52.518;13.486;2023-02-03T09:39:30;1.23;;;0.73;;
9100;SDS011;4586;52.518;13.486;2023-02-03T09:47:49;2.50;;;1.30;;
9100;SDS011;4586;52.518;13.486;2023-02-03T09:51:54;1.53;;;1.17;;
9100;SDS011;4586;52.518;13.486;2023-02-03T09:55:57;2.30;;;0.90;;
9100;SDS011;4586;52.518;13.486;2023-02-03T10:00:01;0.87;;;0.50;;
9100;SDS011;4586;52.518;13.486;2023-02-03T10:16:39;0.70;;;0.70;;
9100;SDS011;4586;52.518;13.486;2023-02-03T10:20:48;0.97;;;0.73;;
9100;SDS011;4586;52.518;13.486;2023-02-03T10:25:15;2.30;;;0.73;;
9100;SDS011;4586;52.518;13.486;2023-02-03T10:29:19;0.93;;;0.67;;
9100;SDS011;4586;52.518;13.486;2023-02-03T10:33:29;0.90;;;0.90;;
9100;SDS011;4586;52.518;13.486;2023-02-03T10:37:36;2.50;;;0.80;;
9100;SDS011;4586;52.518;13.486;2023-02-03T10:41:42;0.90;;;0.70;;
9100;SDS011;4586;52.518;13.486;2023-02-03T10:45:44;4.30;;;0.73;;
9100;SDS011;4586;52.518;13.486;2023-02-03T10:49:48;0.83;;;0.40;;
9100;SDS011;4586;52.518;13.486;2023-02-03T10:53:51;3.07;;;0.97;;
9100;SDS011;4586;52.518;13.486;2023-02-03T10:57:53;2.07;;;0.40;;
9100;SDS011;4586;52.518;13.486;2023-02-03T11:01:56;3.13;;;0.47;;
9100;SDS011;4586;52.518;13.486;2023-02-03T11:06:12;1.63;;;0.50;;
9100;SDS011;4586;52.518;13.486;2023-02-03T11:14:34;1.40;;;0.83;;
9100;SDS011;4586;52.518;13.486;2023-02-03T11:22:39;1.37;;;0.73;;
9100;SDS011;4586;52.518;13.486;2023-02-03T11:26:44;3.13;;;1.10;;
9100;SDS011;4586;52.518;13.486;2023-02-03T11:30:53;1.60;;;0.50;;
9100;SDS011;4586;52.518;13.486;2023-02-03T11:34:59;1.43;;;0.50;;
9100;SDS011;4586;52.518;13.486;2023-02-03T11:39:35;2.00;;;0.73;;
9100;SDS011;4586;52.518;13.486;2023-02-03T11:43:30;3.43;;;1.20;;
9100;SDS011;4586;52.518;13.486;2023-02-03T11:47:32;0.60;;;0.53;;
9100;SDS011;4586;52.518;13.486;2023-02-03T11:56:00;5.20;;;0.93;;
9100;SDS011;4586;52.518;13.486;2023-02-03T12:12:45;5.33;;;1.13;;
9100;SDS011;4586;52.518;13.486;2023-02-03T12:29:51;6.20;;;1.47;;
9100;SDS011;4586;52.518;13.486;2023-02-03T12:33:58;4.50;;;1.10;;
9100;SDS011;4586;52.518;13.486;2023-02-03T12:38:04;4.93;;;1.27;;
9100;SDS011;4586;52.518;13.486;2023-02-03T12:42:12;6.57;;;1.80;;
9100;SDS011;4586;52.518;13.486;2023-02-03T12:54:41;8.20;;;1.60;;
9100;SDS011;4586;52.518;13.486;2023-02-03T13:02:51;1.33;;;0.83;;
9100;SDS011;4586;52.518;13.486;2023-02-03T13:07:11;1.50;;;0.43;;
9100;SDS011;4586;52.518;13.486;2023-02-03T13:11:28;4.13;;;0.33;;
9100;SDS011;4586;52.518;13.486;2023-02-03T13:15:39;4.90;;;1.30;;
9100;SDS011;4586;52.518;13.486;2023-02-03T13:19:48;1.03;;;0.60;;
9100;SDS011;4586;52.518;13.486;2023-02-03T13:23:50;0.87;;;0.67;;
9100;SDS011;4586;52.518;13.486;2023-02-03T13:44:35;1.87;;;0.40;;
9100;SDS011;4586;52.518;13.486;2023-02-03T13:48:38;2.57;;;0.60;;
9100;SDS011;4586;52.518;13.486;2023-02-03T13:52:52;4.07;;;1.20;;
9100;SDS011;4586;52.518;13.486;2023-02-03T13:56:58;0.77;;;0.77;;
9100;SDS011;4586;52.518;13.486;2023-02-03T14:01:05;0.77;;;0.50;;
9100;SDS011;4586;52.518;13.486;2023-02-03T14:05:28;4.90;;;1.30;;
9100;SDS011;4586;52.518;13.486;2023-02-03T14:13:32;2.00;;;0.77;;
9100;SDS011;4586;52.518;13.486;2023-02-03T14:21:42;2.63;;;1.23;;
9100;SDS011;4586;52.518;13.486;2023-02-03T14:25:48;4.70;;;0.90;;
9100;SDS011;4586;52.518;13.486;2023-02-03T14:30:11;11.53;;;1.60;;
9100;SDS011;4586;52.518;13.486;2023-02-03T14:34:14;5.90;;;1.30;;
9100;SDS011;4586;52.518;13.486;2023-02-03T14:38:16;5.93;;;1.30;;
9100;SDS011;4586;52.518;13.486;2023-02-03T14:42:22;6.63;;;1.20;;
9100;SDS011;4586;52.518;13.486;2023-02-03T14:46:42;3.13;;;1.07;;
9100;SDS011;4586;52.518;13.486;2023-02-03T14:55:57;5.70;;;1.47;;
9100;SDS011;4586;52.518;13.486;2023-02-03T14:59:23;9.43;;;2.27;;
9100;SDS011;4586;52.518;13.486;2023-02-03T15:03:29;6.40;;;1.43;;
9100;SDS011;4586;52.518;13.486;2023-02-03T15:11:45;6.23;;;1.33;;
9100;SDS011;4586;52.518;13.486;2023-02-03T15:15:48;4.47;;;1.30;;
9100;SDS011;4586;52.518;13.486;2023-02-03T15:19:51;4.83;;;1.63;;
9100;SDS011;4586;52.518;13.486;2023-02-03T15:23:53;4.63;;;1.47;;
9100;SDS011;4586;52.518;13.486;2023-02-03T15:28:11;3.80;;;1.40;;
9100;SDS011;4586;52.518;13.486;2023-02-03T15:32:16;9.23;;;2.50;;
9100;SDS011;4586;52.518;13.486;2023-02-03T15:36:20;5.80;;;1.47;;
9100;SDS011;4586;52.518;13.486;2023-02-03T15:40:24;8.07;;;1.90;;
9100;SDS011;4586;52.518;13.486;2023-02-03T15:44:34;4.40;;;1.00;;
9100;SDS011;4586;52.518;13.486;2023-02-03T15:52:40;8.40;;;1.70;;
9100;SDS011;4586;52.518;13.486;2023-02-03T15:56:43;10.40;;;1.60;;
9100;SDS011;4586;52.518;13.486;2023-02-03T16:00:51;2.83;;;1.03;;
9100;SDS011;4586;52.518;13.486;2023-02-03T16:04:54;5.80;;;1.50;;
9100;SDS011;4586;52.518;13.486;2023-02-03T16:08:56;2.57;;;1.20;;
9100;SDS011;4586;52.518;13.486;2023-02-03T16:17:29;4.00;;;1.47;;
9100;SDS011;4586;52.518;13.486;2023-02-03T16:21:33;7.00;;;2.10;;
9100;SDS011;4586;52.518;13.486;2023-02-03T16:25:35;5.83;;;1.97;;
9100;SDS011;4586;52.518;13.486;2023-02-03T16:29:38;7.27;;;2.30;;
9100;SDS011;4586;52.518;13.486;2023-02-03T16:33:44;3.87;;;1.27;;
9100;SDS011;4586;52.518;13.486;2023-02-03T16:37:46;5.50;;;2.80;;
9100;SDS011;4586;52.518;13.486;2023-02-03T16:41:48;6.83;;;1.97;;
9100;SDS011;4586;52.518;13.486;2023-02-03T16:45:52;3.93;;;1.20;;
9100;SDS011;4586;52.518;13.486;2023-02-03T16:49:55;5.47;;;1.33;;
9100;SDS011;4586;52.518;13.486;2023-02-03T16:53:58;11.67;;;1.77;;
9100;SDS011;4586;52.518;13.486;2023-02-03T16:58:00;3.37;;;0.97;;
9100;SDS011;4586;52.518;13.486;2023-02-03T17:02:02;4.67;;;1.40;;
9100;SDS011;4586;52.518;13.486;2023-02-03T17:06:06;4.20;;;1.40;;
9100;SDS011;4586;52.518;13.486;2023-02-03T17:10:09;4.83;;;1.40;;
9100;SDS011;4586;52.518;13.486;2023-02-03T17:14:11;6.00;;;2.40;;
9100;SDS011;4586;52.518;13.486;2023-02-03T17:18:13;5.17;;;1.10;;
9100;SDS011;4586;52.518;13.486;2023-02-03T17:22:15;3.30;;;1.53;;
9100;SDS011;4586;52.518;13.486;2023-02-03T17:26:18;4.30;;;1.97;;
9100;SDS011;4586;52.518;13.486;2023-02-03T17:30:20;4.60;;;1.73;;
9100;SDS011;4586;52.518;13.486;2023-02-03T17:34:22;9.83;;;1.57;;
9100;SDS011;4586;52.518;13.486;2023-02-03T17:38:24;8.50;;;1.80;;
9100;SDS011;4586;52.518;13.486;2023-02-03T17:42:27;4.00;;;1.27;;
9100;SDS011;4586;52.518;13.486;2023-02-03T17:46:47;6.73;;;2.00;;
9100;SDS011;4586;52.518;13.486;2023-02-03T17:51:08;7.10;;;1.40;;
9100;SDS011;4586;52.518;13.486;2023-02-03T17:55:28;4.30;;;1.20;;
9100;SDS011;4586;52.518;13.486;2023-02-03T17:59:31;4.00;;;1.73;;
9100;SDS011;4586;52.518;13.486;2023-02-03T18:03:33;9.10;;;1.67;;
9100;SDS011;4586;52.518;13.486;2023-02-03T18:07:35;6.40;;;1.70;;
9100;SDS011;4586;52.518;13.486;2023-02-03T18:11:38;4.30;;;0.80;;
9100;SDS011;4586;52.518;13.486;2023-02-03T18:15:40;4.60;;;1.50;;
9100;SDS011;4586;52.518;13.486;2023-02-03T18:19:42;2.50;;;1.37;;
9100;SDS011;4586;52.518;13.486;2023-02-03T18:23:50;4.90;;;1.60;;
9100;SDS011;4586;52.518;13.486;2023-02-03T18:27:52;2.43;;;1.03;;
9100;SDS011;4586;52.518;13.486;2023-02-03T18:31:54;3.97;;;1.40;;
9100;SDS011;4586;52.518;13.486;2023-02-03T18:35:57;8.17;;;1.83;;
9100;SDS011;4586;52.518;13.486;2023-02-03T18:39:59;5.17;;;1.50;;
9100;SDS011;4586;52.518;13.486;2023-02-03T18:44:01;1.97;;;1.53;;
9100;SDS011;4586;52.518;13.486;2023-02-03T18:48:03;4.40;;;1.47;;
9100;SDS011;4586;52.518;13.486;2023-02-03T18:52:05;7.03;;;1.27;;
9100;SDS011;4586;52.518;13.486;2023-02-03T18:56:08;2.40;;;0.80;;
9100;SDS011;4586;52.518;13.486;2023-02-03T19:00:12;4.60;;;1.03;;
9100;SDS011;4586;52.518;13.486;2023-02-03T19:04:14;7.17;;;2.53;;
9100;SDS011;4586;52.518;13.486;2023-02-03T19:08:17;3.70;;;1.10;;
9100;SDS011;4586;52.518;13.486;2023-02-03T19:12:19;5.27;;;1.40;;
9100;SDS011;4586;52.518;13.486;2023-02-03T19:16:21;1.87;;;0.97;;
9100;SDS011;4586;52.518;13.486;2023-02-03T19:20:23;4.07;;;1.23;;
9100;SDS011;4586;52.518;13.486;2023-02-03T19:24:25;1.17;;;0.93;;
9100;SDS011;4586;52.518;13.486;2023-02-03T19:28:28;5.40;;;1.17;;
9100;SDS011;4586;52.518;13.486;2023-02-03T19:32:32;3.03;;;0.80;;
9100;SDS011;4586;52.518;13.486;2023-02-03T19:36:34;3.70;;;1.07;;
9100;SDS011;4586;52.518;13.486;2023-02-03T19:40:36;3.03;;;1.03;;
9100;SDS011;4586;52.518;13.486;2023-02-03T19:44:39;0.70;;;0.57;;
9100;SDS011;4586;52.518;13.486;2023-02-03T19:48:41;0.67;;;0.43;;
9100;SDS011;4586;52.518;13.486;2023-02-03T19:52:43;3.50;;;0.67;;
9100;SDS011;4586;52.518;13.486;2023-02-03T19:56:45;4.27;;;1.60;;
9100;SDS011;4586;52.518;13.486;2023-02-03T20:00:47;3.60;;;1.30;;
9100;SDS011;4586;52.518;13.486;2023-02-03T20:04:50;1.97;;;0.60;;
9100;SDS011;4586;52.518;13.486;2023-02-03T20:08:52;0.80;;;0.57;;
9100;SDS011;4586;52.518;13.486;2023-02-03T20:12:54;2.93;;;0.70;;
9100;SDS011;4586;52.518;13.486;2023-02-03T20:16:56;4.87;;;0.70;;
9100;SDS011;4586;52.518;13.486;2023-02-03T20:20:58;1.67;;;0.43;;
9100;SDS011;4586;52.518;13.486;2023-02-03T20:25:01;1.97;;;0.90;;
9100;SDS011;4586;52.518;13.486;2023-02-03T20:29:03;1.60;;;0.60;;
9100;SDS011;4586;52.518;13.486;2023-02-03T20:33:05;0.87;;;0.70;;
9100;SDS011;4586;52.518;13.486;2023-02-03T20:37:07;1.33;;;0.73;;
9100;SDS011;4586;52.518;13.486;2023-02-03T20:41:10;2.57;;;1.47;;
9100;SDS011;4586;52.518;13.486;2023-02-03T20:45:13;4.23;;;1.70;;
9100;SDS011;4586;52.518;13.486;2023-02-03T20:49:16;2.23;;;0.97;;
9100;SDS011;4586;52.518;13.486;2023-02-03T20:53:20;0.77;;;0.37;;
9100;SDS011;4586;52.518;13.486;2023-02-03T20:57:22;2.77;;;0.80;;
9100;SDS011;4586;52.518;13.486;2023-02-03T21:01:24;3.93;;;0.47;;
9100;SDS011;4586;52.518;13.486;2023-02-03T21:05:27;0.80;;;0.53;;
9100;SDS011;4586;52.518;13.486;2023-02-03T21:09:30;1.37;;;0.53;;
9100;SDS011;4586;52.518;13.486;2023-02-03T21:13:33;1.80;;;0.93;;
9100;SDS011;4586;52.518;13.486;2023-02-03T21:17:35;1.00;;;0.50;;
9100;SDS011;4586;52.518;13.486;2023-02-03T21:21:38;0.63;;;0.40;;
9100;SDS011;4586;52.518;13.486;2023-02-03T21:25:40;1.70;;;0.47;;
9100;SDS011;4586;52.518;13.486;2023-02-03T21:29:42;0.70;;;0.50;;
9100;SDS011;4586;52.518;13.486;2023-02-03T21:33:45;1.47;;;0.33;;
9100;SDS011;4586;52.518;13.486;2023-02-03T21:37:47;1.30;;;0.73;;
9100;SDS011;4586;52.518;13.486;2023-02-03T21:41:49;2.23;;;0.60;;
9100;SDS011;4586;52.518;13.486;2023-02-03T21:45:51;1.10;;;0.60;;
9100;SDS011;4586;52.518;13.486;2023-02-03T21:49:54;4.03;;;1.97;;
9100;SDS011;4586;52.518;13.486;2023-02-03T21:53:58;0.90;;;0.70;;
9100;SDS011;4586;52.518;13.486;2023-02-03T21:58:22;0.70;;;0.60;;
9100;SDS011;4586;52.518;13.486;2023-02-03T22:02:37;0.70;;;0.57;;
9100;SDS011;4586;52.518;13.486;2023-02-03T22:06:49;0.83;;;0.33;;
9100;SDS011;4586;52.518;13.486;2023-02-03T22:10:52;1.23;;;0.43;;
9100;SDS011;4586;52.518;13.486;2023-02-03T22:14:54;1.87;;;0.53;;
9100;SDS011;4586;52.518;13.486;2023-02-03T22:18:56;0.77;;;0.50;;
9100;SDS011;4586;52.518;13.486;2023-02-03T22:22:58;0.47;;;0.47;;
9100;SDS011;4586;52.518;13.486;2023-02-03T22:27:00;0.53;;;0.30;;
9100;SDS011;4586;52.518;13.486;2023-02-03T22:31:03;0.53;;;0.40;;
9100;SDS011;4586;52.518;13.486;2023-02-03T22:35:05;0.27;;;0.27;;
9100;SDS011;4586;52.518;13.486;2023-02-03T22:39:07;0.50;;;0.40;;
9100;SDS011;4586;52.518;13.486;2023-02-03T22:43:10;0.47;;;0.47;;
9100;SDS011;4586;52.518;13.486;2023-02-03T22:47:12;0.50;;;0.50;;
9100;SDS011;4586;52.518;13.486;2023-02-03T22:51:14;1.70;;;1.27;;
9100;SDS011;4586;52.518;13.486;2023-02-03T22:55:16;0.77;;;0.30;;
9100;SDS011;4586;52.518;13.486;2023-02-03T22:59:18;0.70;;;0.60;;
9100;SDS011;4586;52.518;13.486;2023-02-03T23:03:21;0.87;;;0.60;;
9100;SDS011;4586;52.518;13.486;2023-02-03T23:07:23;0.40;;;0.40;;
9100;SDS011;4586;52.518;13.486;2023-02-03T23:11:25;0.77;;;0.50;;
9100;SDS011;4586;52.518;13.486;2023-02-03T23:15:27;1.00;;;0.80;;
9100;SDS011;4586;52.518;13.486;2023-02-03T23:19:30;0.43;;;0.43;;
9100;SDS011;4586;52.518;13.486;2023-02-03T23:23:32;2.00;;;0.77;;
9100;SDS011;4586;52.518;13.486;2023-02-03T23:27:34;0.50;;;0.50;;
9100;SDS011;4586;52.518;13.486;2023-02-03T23:31:36;0.80;;;0.80;;
9100;SDS011;4586;52.518;13.486;2023-02-03T23:35:39;0.70;;;0.50;;
9100;SDS011;4586;52.518;13.486;2023-02-03T23:39:41;1.07;;;0.57;;
9100;SDS011;4586;52.518;13.486;2023-02-03T23:43:43;1.17;;;0.77;;
9100;SDS011;4586;52.518;13.486;2023-02-03T23:47:45;1.33;;;0.80;;
9100;SDS011;4586;52.518;13.486;2023-02-03T23:51:47;0.97;;;0.60;;
9100;SDS011;4586;52.518;13.486;2023-02-03T23:55:49;0.77;;;0.70;;
9100;SDS011;4586;52.518;13.486;2023-02-03T23:59:52;0.80;;;0.63;;
